Latest Weather Observations for Beerburrum

IDQ60901

Issued at 6:51 pm EST Saturday 23 May 2015 (issued every 10 minutes, with the page automatically refreshed every 10 minutes)

About weather observations | Map of Brisbane area stations | Latest observations for Brisbane area | Other Formats
Station Details ID: 040284 Name: BEERBURRUM FOREST STATION Lat: -26.96 Lon: 152.96 Height: 48.0 m
Data from the previous 72 hours. | See also: Recent months at Beerburrum
Date/Time
EST
Tmp

°C
App
Tmp
°C
Dew
Point
°C
Rel
Hum
%
Delta-T

°C
Wind Press
QNH
hPa
Press
MSL
hPa
Rain
since
9 am
mm
Dir
 
Spd
km/h
Gust
km/h
Spd
kts
Gust
kts
23/06:30pm 15.2 15.7 11.6 79 1.9 CALM 0 0 0 0 - - 0.0
23/06:00pm 15.5 15.8 10.9 74 2.5 CALM 0 0 0 0 - - 0.0
23/05:30pm 15.8 16.0 10.6 71 2.8 CALM 0 4 0 2 - - 0.0
23/05:00pm 17.9 16.6 9.8 59 4.3 SSE 7 13 4 7 - - 0.0
23/04:30pm 19.3 18.6 11.3 60 4.4 SE 6 9 3 5 - - 0.0
23/04:00pm 20.5 18.8 9.7 50 5.8 SSE 9 19 5 10 - - 0.0
23/03:30pm 20.6 18.8 9.5 49 5.9 SSE 9 22 5 12 - - 0.0
23/03:00pm 21.0 18.8 9.3 47 6.2 SSE 11 30 6 16 - - 0.0
23/02:30pm 21.1 18.4 9.0 46 6.4 S 13 24 7 13 - - 0.0
23/02:00pm 21.3 19.2 9.9 48 6.2 SSE 11 20 6 11 - - 0.0
23/01:30pm 22.1 19.7 9.9 46 6.6 SSE 13 22 7 12 - - 0.0
23/01:00pm 21.9 19.8 9.8 46 6.6 SSE 11 20 6 11 - - 0.0
23/12:30pm 21.1 18.1 9.4 47 6.3 S 15 30 8 16 - - 0.0
23/12:00pm 21.1 18.8 9.0 46 6.4 S 11 20 6 11 - - 0.0
23/11:30am 20.9 18.3 9.2 47 6.2 S 13 26 7 14 - - 0.0
23/11:00am 20.9 19.0 10.4 51 5.7 S 11 26 6 14 - - 0.0
23/10:30am 20.2 18.0 9.2 49 5.8 S 11 20 6 11 - - 0.0
23/10:00am 19.4 17.0 8.7 50 5.6 S 11 20 6 11 - - 0.0
23/09:30am 19.2 18.1 10.5 57 4.7 S 7 15 4 8 - - 0.0
23/09:00am 18.5 17.5 10.3 59 4.4 S 6 13 3 7 - - 0.0
23/08:30am 17.3 16.3 11.1 67 3.4 S 7 22 4 12 - - 0.0
23/08:00am 15.6 14.7 10.8 73 2.6 S 6 9 3 5 - - 0.0
23/07:30am 12.9 11.9 10.4 85 1.3 S 6 7 3 4 - - 0.0
23/07:00am 11.7 10.3 9.6 87 1.1 S 7 7 4 4 - - 0.0
23/06:30am 11.3 10.1 9.4 88 1.0 S 6 7 3 4 - - 0.0
23/06:00am 11.2 9.7 9.3 88 1.0 SSW 7 9 4 5 - - 0.0
23/05:30am 11.5 10.3 9.4 87 1.1 S 6 7 3 4 - - 0.0
23/05:00am 11.4 10.1 9.1 86 1.2 S 6 7 3 4 - - 0.0
23/04:30am 12.0 10.8 9.6 85 1.2 S 6 7 3 4 - - 0.0
23/04:00am 12.0 10.8 9.6 85 1.2 S 6 7 3 4 - - 0.0
23/03:30am 12.2 10.8 9.6 84 1.3 S 7 9 4 5 - - 0.0
23/03:00am 12.3 10.9 9.5 83 1.4 SSW 7 9 4 5 - - 0.0
23/02:30am 12.8 11.5 9.1 78 1.9 SSW 6 11 3 6 - - 0.0
23/02:00am 13.3 11.9 9.5 78 1.9 SSW 7 11 4 6 - - 0.0
23/01:30am 13.2 11.7 9.3 77 2.0 SSW 7 15 4 8 - - 0.0
23/01:00am 12.8 11.3 9.1 78 1.9 SSW 7 13 4 7 - - 0.0
23/12:30am 13.0 11.4 8.9 76 2.1 SW 7 13 4 7 - - 0.0
23/12:00am 13.1 11.6 9.2 77 2.0 SW 7 20 4 11 - - 0.0
 
Date/Time
EST
Tmp

°C
App
Tmp
°C
Dew
Point
°C
Rel
Hum
%
Delta-T

°C
Wind Press
QNH
hPa
Press
MSL
hPa
Rain
since
9 am
mm
Dir
 
Spd
km/h
Gust
km/h
Spd
kts
Gust
kts
22/11:30pm 12.9 11.3 8.8 76 2.1 SSW 7 13 4 7 - - 0.0
22/11:00pm 12.7 11.2 8.4 75 2.1 S 6 7 3 4 - - 0.0
22/10:30pm 13.2 11.2 8.7 74 2.3 SW 9 13 5 7 - - 0.0
22/10:00pm 12.7 10.7 8.6 76 2.0 SW 9 13 5 7 - - 0.0
22/09:30pm 13.0 11.9 8.3 73 2.3 SSE 4 11 2 6 - - 0.0
22/09:00pm 13.3 11.6 8.2 71 2.5 SW 7 11 4 6 - - 0.0
22/08:30pm 13.0 11.3 8.3 73 2.3 SW 7 13 4 7 - - 0.0
22/08:00pm 12.7 11.8 7.8 72 2.4 SSE 2 6 1 3 - - 0.0
22/07:30pm 14.1 12.4 7.6 65 3.2 SW 6 19 3 10 - - 0.0
22/07:00pm 14.1 12.2 7.4 64 3.3 WSW 7 17 4 9 - - 0.0
22/06:30pm 13.8 12.0 7.3 65 3.2 SSW 6 11 3 6 - - 0.0
22/06:00pm 14.0 12.1 7.5 65 3.2 SW 7 15 4 8 - - 0.0
22/05:30pm 13.7 11.8 7.5 66 3.0 SSW 7 11 4 6 - - 0.0
22/05:00pm 14.5 12.8 7.5 63 3.5 SSW 6 13 3 7 - - 0.0
22/04:30pm 15.7 13.7 7.2 57 4.2 SSW 7 15 4 8 - - 0.0
22/04:00pm 17.5 15.0 6.7 49 5.4 SW 9 22 5 12 - - 0.0
22/03:30pm 18.2 15.6 6.1 45 6.0 SW 9 24 5 13 - - 0.0
22/03:00pm 18.8 16.4 6.9 46 6.0 WSW 9 22 5 12 - - 0.0
22/02:30pm 19.1 16.1 5.9 42 6.5 SW 11 24 6 13 - - 0.0
22/02:00pm 19.3 16.2 5.7 41 6.7 WSW 11 22 6 12 - - 0.0
22/01:30pm 19.4 16.2 6.8 44 6.4 WSW 13 30 7 16 - - 0.0
22/01:00pm 19.5 16.8 7.3 45 6.2 W 11 19 6 10 - - 0.0
22/12:30pm 19.3 16.7 7.7 47 5.9 SW 11 20 6 11 - - 0.0
22/12:00pm 18.8 16.2 7.9 49 5.6 W 11 22 6 12 - - 0.0
22/11:30am 18.7 16.4 7.5 48 5.7 WSW 9 20 5 11 - - 0.0
22/11:00am 17.8 14.8 7.5 51 5.2 W 13 20 7 11 - - 0.0
22/10:30am 18.5 16.5 8.5 52 5.2 SW 9 20 5 11 - - 0.0
22/10:00am 17.6 15.4 9.2 58 4.4 W 11 20 6 11 - - 0.0
22/09:30am 16.8 14.3 8.0 56 4.5 WSW 11 28 6 15 - - 0.0
22/09:00am 17.5 15.8 9.9 61 4.0 W 9 20 5 11 - - 2.2
22/08:30am 16.6 14.8 9.3 62 3.8 W 9 15 5 8 - - 2.2
22/08:00am 16.0 14.6 9.7 66 3.3 W 7 15 4 8 - - 2.2
22/07:30am 13.9 14.1 10.5 80 1.8 CALM 0 6 0 3 - - 2.2
22/07:00am 13.4 12.2 9.6 78 1.9 S 6 7 3 4 - - 2.2
22/06:30am 14.4 13.0 9.4 72 2.6 SSW 7 11 4 6 - - 2.2
22/06:00am 15.1 13.5 10.3 73 2.5 SW 9 17 5 9 - - 2.2
22/05:30am 16.0 16.1 13.8 87 1.2 S 6 9 3 5 - - 2.2
22/05:00am 16.0 16.4 13.7 86 1.3 S 4 6 2 3 - - 2.2
22/04:30am 16.5 16.4 13.8 84 1.5 SW 7 13 4 7 - - 2.2
22/04:00am 16.4 15.9 13.9 85 1.4 W 9 19 5 10 - - 2.2
22/03:30am 16.2 16.1 13.9 86 1.3 SW 7 15 4 8 - - 2.2
22/03:00am 16.0 16.6 14.2 89 1.0 S 4 9 2 5 - - 2.2
22/02:30am 16.2 16.4 14.2 88 1.1 S 6 9 3 5 - - 2.2
22/02:00am 16.0 16.7 14.4 90 0.9 S 4 7 2 4 - - 2.2
22/01:30am 16.0 16.0 14.2 89 1.0 W 7 13 4 7 - - 2.2
22/01:00am 16.0 17.0 14.4 90 0.9 SSE 2 6 1 3 - - 1.6
22/12:30am 16.2 16.4 14.2 88 1.1 SSW 6 13 3 7 - - 1.4
22/12:00am 16.4 17.0 14.2 87 1.3 S 4 9 2 5 - - 1.0
 
Date/Time
EST
Tmp

°C
App
Tmp
°C
Dew
Point
°C
Rel
Hum
%
Delta-T

°C
Wind Press
QNH
hPa
Press
MSL
hPa
Rain
since
9 am
mm
Dir
 
Spd
km/h
Gust
km/h
Spd
kts
Gust
kts
21/11:30pm 17.0 17.6 14.3 84 1.5 S 4 7 2 4 - - 0.4
21/11:00pm 18.2 19.5 14.1 77 2.4 CALM 0 0 0 0 - - 0.2
21/10:30pm 18.7 18.8 14.0 74 2.7 S 6 7 3 4 - - 0.2
21/10:00pm 18.6 18.8 14.3 76 2.5 S 6 11 3 6 - - 0.2
21/09:30pm 18.5 19.0 14.0 75 2.6 S 4 9 2 5 - - 0.2
21/09:00pm 17.9 19.2 14.2 79 2.1 CALM 0 4 0 2 - - 0.2
21/08:30pm 18.3 19.7 14.4 78 2.3 CALM 0 0 0 0 - - 0.2
21/08:00pm 18.4 19.6 13.9 75 2.6 CALM 0 0 0 0 - - 0.2
21/07:30pm 19.0 20.4 14.3 74 2.7 CALM 0 0 0 0 - - 0.2
21/07:00pm 19.4 20.7 14.0 71 3.1 CALM 0 6 0 3 - - 0.2
21/06:30pm 19.7 19.9 14.3 71 3.1 S 6 9 3 5 - - 0.2
21/06:00pm 19.9 20.6 14.5 71 3.1 S 4 7 2 4 - - 0.2
21/05:30pm 20.1 20.6 14.9 72 3.1 S 6 9 3 5 - - 0.2
21/05:00pm 20.8 21.6 14.9 69 3.5 S 4 9 2 5 - - 0.2
21/04:30pm 22.3 23.5 16.8 71 3.4 S 6 11 3 6 - - 0.2
21/04:00pm 23.2 24.5 17.2 69 3.7 S 6 9 3 5 - - 0.2
21/03:30pm 23.7 25.5 18.4 72 3.3 S 6 7 3 4 - - 0.2
21/03:00pm 24.8 27.8 18.5 68 4.0 CALM 0 6 0 3 - - 0.2
21/02:30pm 25.4 27.7 17.8 62 4.8 SSE 2 7 1 4 - - 0.2
21/02:00pm 25.5 27.0 17.7 62 4.9 SSW 6 13 3 7 - - 0.2
21/01:30pm 25.1 26.1 16.3 58 5.4 SSW 6 9 3 5 - - 0.2
21/01:00pm 25.9 27.0 16.7 57 5.7 S 6 9 3 5 - - 0.2
21/12:30pm 26.1 27.0 16.6 55 5.9 SW 7 13 4 7 - - 0.2
21/12:00pm 26.0 27.3 17.1 58 5.5 SSW 6 11 3 6 - - 0.2
21/11:30am 24.8 26.1 17.0 62 4.8 SSW 6 9 3 5 - - 0.2
21/11:00am 24.8 26.4 17.0 62 4.8 S 4 7 2 4 - - 0.2
21/10:30am 24.4 25.5 17.1 63 4.5 N 7 11 4 6 - - 0.2
21/10:00am 23.6 24.9 17.6 69 3.7 NW 7 9 4 5 - - 0.0
21/09:30am 22.8 24.3 17.5 72 3.3 SW 6 13 3 7 - - 0.0
21/09:00am 21.7 23.2 17.5 77 2.6 S 6 13 3 7 - - 0.0
21/08:30am 19.5 22.4 18.3 93 0.7 CALM 0 0 0 0 - - 0.0
21/08:00am 18.0 20.4 17.0 94 0.6 CALM 0 0 0 0 - - 0.0
21/07:30am 17.1 19.1 16.1 94 0.6 CALM 0 6 0 3 - - 0.0
21/07:00am 15.9 17.5 14.9 94 0.6 CALM 0 0 0 0 - - 0.0
21/06:30am 15.5 16.9 14.5 94 0.6 CALM 0 0 0 0 - - 0.0
21/06:00am 15.5 16.9 14.5 94 0.6 CALM 0 0 0 0 - - 0.0
21/05:30am 15.7 17.2 14.7 94 0.6 CALM 0 0 0 0 - - 0.0
21/05:00am 15.8 17.3 14.7 93 0.6 CALM 0 0 0 0 - - 0.0
21/04:30am 15.8 17.3 14.7 93 0.6 CALM 0 0 0 0 - - 0.0
21/04:00am 15.9 17.5 14.8 93 0.6 CALM 0 0 0 0 - - 0.0
21/03:30am 16.3 18.0 15.2 93 0.6 CALM 0 0 0 0 - - 0.0
21/03:00am 16.4 18.1 15.3 93 0.6 CALM 0 0 0 0 - - 0.0
21/02:30am 16.7 18.5 15.6 93 0.6 CALM 0 0 0 0 - - 0.0
21/02:00am 16.8 18.0 15.8 94 0.6 E 4 7 2 4 - - 0.0
21/01:30am 16.7 18.2 15.6 93 0.6 E 2 6 1 3 - - 0.0
21/01:00am 17.0 19.0 15.9 93 0.6 CALM 0 0 0 0 - - 0.0
21/12:30am 17.5 19.7 16.5 94 0.6 CALM 0 0 0 0 - - 0.0
21/12:00am 17.2 18.9 16.1 93 0.7 E 2 6 1 3 - - 0.0
 
Date/Time
EST
Tmp

°C
App
Tmp
°C
Dew
Point
°C
Rel
Hum
%
Delta-T

°C
Wind Press
QNH
hPa
Press
MSL
hPa
Rain
since
9 am
mm
Dir
 
Spd
km/h
Gust
km/h
Spd
kts
Gust
kts
20/11:30pm 17.5 19.6 16.2 92 0.8 CALM 0 4 0 2 - - 0.0
20/11:00pm 17.8 20.0 16.5 92 0.8 CALM 0 0 0 0 - - 0.0
20/10:30pm 18.3 20.3 17.0 92 0.8 E 2 6 1 3 - - 0.0
20/10:00pm 18.6 20.4 17.4 93 0.7 E 4 7 2 4 - - 0.0
20/09:30pm 18.9 20.4 17.7 93 0.7 ENE 6 7 3 4 - - 0.0
20/09:00pm 18.2 19.8 16.9 92 0.8 E 4 7 2 4 - - 0.0
20/08:30pm 18.8 21.0 17.5 92 0.8 E 2 7 1 4 - - 0.0
20/08:00pm 18.8 20.7 17.6 93 0.7 E 4 7 2 4 - - 0.0
20/07:30pm 18.7 20.1 17.4 92 0.8 NE 6 9 3 5 - - 0.0
20/07:00pm 18.9 20.4 17.6 92 0.8 ENE 6 7 3 4 - - 0.0

Latest Capital City Observations: Canberra | Sydney | Melbourne | Brisbane | Adelaide | Perth | Hobart | Darwin

Other Formats:

Comma delimited format used in spreadsheet applications
http://www.bom.gov.au/fwo/IDQ60901/IDQ60901.95566.axf

JavaScript Object Notation format (JSON) in row-major order
http://www.bom.gov.au/fwo/IDQ60901/IDQ60901.95566.json